createdAt,value
2023-04-26T05:12:07.495Z,96875.44
2023-04-26T05:14:10.367Z,96876.06
2023-04-26T05:16:13.499Z,96870.66
2023-04-26T05:18:16.397Z,96881.16
2023-04-26T05:20:19.446Z,96880.22
2023-04-26T05:22:22.401Z,96890.88
2023-04-26T05:24:25.276Z,96890.72
2023-04-26T05:26:28.024Z,96889.13
2023-04-26T05:28:32.177Z,96888.09
2023-04-26T05:30:34.993Z,96885.88
2023-04-26T05:32:37.873Z,96883.03
2023-04-26T05:34:41.190Z,96879.38
2023-04-26T05:36:43.996Z,96887.53
2023-04-26T05:38:46.744Z,96882.47
2023-04-26T05:40:51.310Z,96879.19
2023-04-26T05:42:54.146Z,96877.56
2023-04-26T05:44:59.767Z,96874.50
2023-04-26T05:47:02.715Z,96874.75
2023-04-26T05:49:06.013Z,96876.97
2023-04-26T05:51:08.771Z,96878.59
2023-04-26T05:53:11.487Z,96881.84
2023-04-26T05:55:14.319Z,96885.72
2023-04-26T05:57:18.122Z,96889.19
2023-04-26T05:59:21.200Z,96884.72
2023-04-26T06:01:25.856Z,96892.06
2023-04-26T06:03:28.851Z,96904.94
2023-04-26T06:05:32.327Z,96908.78
2023-04-26T06:07:36.013Z,96912.66
2023-04-26T06:09:38.879Z,96908.59
2023-04-26T06:11:41.763Z,96913.91
2023-04-26T06:13:44.488Z,96909.63
2023-04-26T06:15:47.262Z,96900.03
2023-04-26T06:17:51.453Z,96912.06
2023-04-26T06:19:54.488Z,96915.13
2023-04-26T06:21:57.395Z,96914.50
2023-04-26T06:24:00.254Z,96915.75
2023-04-26T06:26:03.077Z,96921.44
2023-04-26T06:28:06.061Z,96920.44
2023-04-26T06:30:10.073Z,96912.28
2023-04-26T06:32:13.008Z,96923.72
2023-04-26T06:34:17.109Z,96916.13
2023-04-26T06:36:20.065Z,96919.59
2023-04-26T06:38:22.887Z,96918.59
2023-04-26T06:40:25.806Z,96913.69
2023-04-26T06:42:28.683Z,96922.69
2023-04-26T06:44:31.682Z,96926.75
2023-04-26T06:46:34.661Z,96922.03
2023-04-26T06:48:37.453Z,96917.56
2023-04-26T06:50:41.808Z,96916.13
2023-04-26T06:52:44.778Z,96915.72
2023-04-26T06:54:56.538Z,96921.81
2023-04-26T06:57:01.539Z,96916.50
2023-04-26T06:59:06.981Z,96913.84
2023-04-26T07:01:10.041Z,96915.69
2023-04-26T07:03:13.022Z,96905.88
2023-04-26T07:05:16.504Z,96907.72
2023-04-26T07:07:20.836Z,96913.84
2023-04-26T07:09:24.111Z,96912.00
2023-04-26T07:11:27.122Z,96910.16
2023-04-26T07:13:29.866Z,96910.56
2023-04-26T07:15:33.244Z,96912.41
2023-04-26T07:17:36.209Z,96915.25
2023-04-26T07:19:39.131Z,96914.03
2023-04-26T07:21:41.937Z,96911.97
2023-04-26T07:23:46.272Z,96909.94
2023-04-26T07:25:49.147Z,96908.50
2023-04-26T07:27:52.372Z,96905.88
2023-04-26T07:29:56.366Z,96910.78
2023-04-26T07:31:59.439Z,96902.22
2023-04-26T07:34:02.247Z,96899.34
2023-04-26T07:36:05.497Z,96895.28
2023-04-26T07:38:09.123Z,96891.00
2023-04-26T07:40:14.882Z,96886.50
2023-04-26T07:42:17.651Z,96888.75
2023-04-26T07:44:20.520Z,96878.53
2023-04-26T07:46:23.416Z,96877.72
2023-04-26T07:48:26.444Z,96875.28
2023-04-26T07:50:29.509Z,96878.16
2023-04-26T07:52:32.363Z,96870.41
2023-04-26T07:54:35.136Z,96871.59
2023-04-26T07:56:39.413Z,96874.25
2023-04-26T07:58:42.230Z,96883.84
2023-04-26T08:00:45.133Z,96877.94
2023-04-26T08:02:48.058Z,96871.22
2023-04-26T08:04:52.750Z,96870.19
2023-04-26T08:06:56.801Z,96872.84
2023-04-26T08:08:59.629Z,96870.78
2023-04-26T08:11:02.446Z,96873.22
2023-04-26T08:13:06.542Z,96875.66
2023-04-26T08:15:10.514Z,96871.59
2023-04-26T08:17:13.455Z,96871.38
2023-04-26T08:19:16.451Z,96874.47
2023-04-26T08:21:19.370Z,96872.41
2023-04-26T08:23:22.898Z,96879.34
2023-04-26T08:25:26.255Z,96873.66
2023-04-26T08:27:29.550Z,96873.66
2023-04-26T08:29:33.883Z,96873.66
2023-04-26T08:31:36.812Z,96877.34
2023-04-26T08:33:39.742Z,96878.97
2023-04-26T08:35:42.680Z,96877.34
2023-04-26T08:37:46.028Z,96869.97
2023-04-26T08:39:49.009Z,96875.06
2023-04-26T08:41:55.312Z,96866.28
2023-04-26T08:43:59.816Z,96868.13
2023-04-26T08:46:08.859Z,96873.22
2023-04-26T08:48:15.779Z,96870.75
2023-04-26T08:50:22.059Z,96868.91
2023-04-26T08:52:28.516Z,96872.78
2023-04-26T08:54:33.155Z,96877.28
2023-04-26T08:56:36.509Z,96874.44
2023-04-26T08:58:39.564Z,96874.00
2023-04-26T09:00:46.345Z,96873.19
2023-04-26T09:02:52.682Z,96874.38
2023-04-26T09:04:56.624Z,96873.97
2023-04-26T09:07:02.195Z,96882.56
2023-04-26T09:09:07.812Z,96877.63
2023-04-26T09:11:10.800Z,96880.66
2023-04-26T09:13:14.531Z,96874.53
2023-04-26T09:15:17.887Z,96876.38
2023-04-26T09:17:28.212Z,96865.38
2023-04-26T09:19:47.619Z,96870.69
2023-04-26T09:21:50.599Z,96871.06
2023-04-26T09:24:00.268Z,96879.66
2023-04-26T09:26:20.446Z,96875.16
2023-04-26T09:28:25.852Z,96875.78
2023-04-26T09:30:29.893Z,96882.09
2023-04-26T09:32:48.505Z,96875.56
2023-04-26T09:34:55.468Z,96873.72
2023-04-26T09:37:00.915Z,96876.78
2023-04-26T09:39:03.926Z,96874.53
2023-04-26T09:41:06.930Z,96875.13
2023-04-26T09:43:12.556Z,96881.22
2023-04-26T09:45:18.115Z,96875.06
2023-04-26T09:47:23.383Z,96879.34
2023-04-26T09:49:27.370Z,96871.78
2023-04-26T09:51:32.255Z,96870.53
2023-04-26T09:53:37.476Z,96868.47
2023-04-26T09:55:40.486Z,96864.16
2023-04-26T09:57:46.457Z,96866.38
2023-04-26T09:59:53.539Z,96871.06
2023-04-26T10:01:58.809Z,96870.25
2023-04-26T10:04:05.274Z,96872.69
2023-04-26T10:06:08.636Z,96862.84
2023-04-26T10:08:13.152Z,96858.38
2023-04-26T10:10:16.239Z,96857.34
2023-04-26T10:12:20.888Z,96858.97
2023-04-26T10:14:23.863Z,96860.41
2023-04-26T10:16:27.038Z,96852.78
2023-04-26T10:18:29.979Z,96856.66
2023-04-26T10:20:33.160Z,96846.63
2023-04-26T10:22:41.728Z,96843.97
2023-04-26T10:24:46.820Z,96842.72
2023-04-26T10:26:52.014Z,96843.31
2023-04-26T10:29:02.233Z,96835.31
2023-04-26T10:31:07.103Z,96839.19
2023-04-26T10:33:14.727Z,96841.56
2023-04-26T10:35:19.149Z,96833.75
2023-04-26T10:37:21.976Z,96833.34
2023-04-26T10:39:25.915Z,96830.81
2023-04-26T10:41:36.398Z,96828.75
2023-04-26T10:43:42.852Z,96821.16
2023-04-26T10:45:47.047Z,96826.63
2023-04-26T10:47:50.008Z,96819.84
2023-04-26T10:49:53.427Z,96818.38
2023-04-26T10:52:13.258Z,96811.84
2023-04-26T10:54:16.164Z,96817.41
2023-04-26T10:56:54.026Z,96813.91
2023-04-26T10:59:28.311Z,96814.28
2023-04-26T11:01:32.106Z,96807.06
2023-04-26T11:03:35.527Z,96801.91
2023-04-26T11:05:56.923Z,96808.41
2023-04-26T11:08:05.904Z,96800.56
2023-04-26T11:10:11.565Z,96802.59
2023-04-26T11:12:17.281Z,96800.28
2023-04-26T11:14:20.430Z,96808.44
2023-04-26T11:16:26.666Z,96802.66
2023-04-26T11:18:30.038Z,96805.47
2023-04-26T11:20:34.019Z,96814.84
2023-04-26T11:22:41.773Z,96808.88
2023-04-26T11:24:44.686Z,96807.97
2023-04-26T11:26:52.844Z,96801.41
2023-04-26T11:28:57.058Z,96803.59
2023-04-26T11:31:00.859Z,96801.31
2023-04-26T11:33:05.068Z,96800.84
2023-04-26T11:35:09.378Z,96795.53
2023-04-26T11:37:12.185Z,96797.19
2023-04-26T11:39:15.217Z,96798.34
2023-04-26T11:41:18.752Z,96791.31
2023-04-26T11:43:21.820Z,96789.25
2023-04-26T11:45:26.060Z,96782.66
2023-04-26T11:47:30.840Z,96783.25
2023-04-26T11:49:35.083Z,96783.19
2023-04-26T11:51:38.112Z,96774.25
2023-04-26T11:53:42.582Z,96772.56
2023-04-26T11:55:46.202Z,96775.34
2023-04-26T11:57:49.013Z,96773.03
2023-04-26T11:59:52.119Z,96771.97
2023-04-26T12:01:57.509Z,96766.22
2023-04-26T12:04:01.159Z,96768.66
2023-04-26T12:06:04.384Z,96766.31
2023-04-26T12:08:08.731Z,96767.28
2023-04-26T12:10:18.609Z,96761.25
2023-04-26T12:12:24.750Z,96765.78
2023-04-26T12:14:32.670Z,96764.16
2023-04-26T12:16:37.553Z,96763.56
2023-04-26T12:18:42.482Z,96754.53
2023-04-26T12:20:46.730Z,96755.91
2023-04-26T12:23:03.083Z,96758.25
2023-04-26T12:25:07.643Z,96751.88
2023-04-26T12:27:21.060Z,96762.66
2023-04-26T12:29:24.030Z,96756.88
2023-04-26T12:31:27.108Z,96761.75
2023-04-26T12:33:30.958Z,96768.13
2023-04-26T12:35:36.106Z,96758.84
2023-04-26T12:37:41.603Z,96760.22
2023-04-26T12:39:47.029Z,96752.81
2023-04-26T12:41:50.170Z,96752.38
2023-04-26T12:43:53.043Z,96751.31
2023-04-26T12:45:56.144Z,96752.47
2023-04-26T12:47:59.184Z,96760.81
2023-04-26T12:50:02.055Z,96754.00
2023-04-26T12:52:09.266Z,96749.00
2023-04-26T12:54:12.343Z,96755.50
2023-04-26T12:56:16.301Z,96747.28
2023-04-26T12:58:21.902Z,96749.13
2023-04-26T13:00:25.075Z,96752.97
2023-04-26T13:02:28.079Z,96743.44
2023-04-26T13:04:35.651Z,96746.22
2023-04-26T13:06:40.484Z,96746.94
2023-04-26T13:08:44.750Z,96737.69
2023-04-26T13:10:47.554Z,96739.06
2023-04-26T13:12:50.343Z,96741.50
2023-04-26T13:14:53.188Z,96736.97
2023-04-26T13:16:56.429Z,96734.28
2023-04-26T13:18:59.578Z,96741.25
2023-04-26T13:21:02.440Z,96742.88
2023-04-26T13:23:08.192Z,96742.31
2023-04-26T13:25:13.260Z,96734.88
2023-04-26T13:27:16.293Z,96730.81
2023-04-26T13:29:19.103Z,96731.63
2023-04-26T13:31:22.247Z,96732.19
2023-04-26T13:33:25.155Z,96730.69
2023-04-26T13:35:34.873Z,96730.69
2023-04-26T13:37:39.543Z,96733.94
2023-04-26T13:39:42.550Z,96723.84
2023-04-26T13:41:46.973Z,96718.59
2023-04-26T13:43:50.170Z,96721.84
2023-04-26T13:45:53.140Z,96715.81
2023-04-26T13:47:56.727Z,96712.91
2023-04-26T13:49:59.838Z,96713.47
2023-04-26T13:52:03.057Z,96709.75
2023-04-26T13:54:06.630Z,96711.03
2023-04-26T13:56:09.621Z,96701.88
2023-04-26T13:58:14.043Z,96707.47
2023-04-26T14:00:18.672Z,96706.50
2023-04-26T14:02:22.319Z,96701.97
2023-04-26T14:04:25.610Z,96708.94
2023-04-26T14:06:29.762Z,96716.69
2023-04-26T14:08:32.785Z,96707.63
2023-04-26T14:10:35.589Z,96710.56
2023-04-26T14:12:38.642Z,96710.22
2023-04-26T14:14:42.893Z,96704.88
2023-04-26T14:16:45.861Z,96713.94
2023-04-26T14:18:48.996Z,96704.88
2023-04-26T14:20:52.024Z,96703.84
2023-04-26T14:22:54.806Z,96708.13
2023-04-26T14:25:00.259Z,96703.34
2023-04-26T14:27:03.190Z,96714.16
2023-04-26T14:29:06.223Z,96714.72
2023-04-26T14:31:10.801Z,96707.84
2023-04-26T14:33:13.953Z,96710.63
2023-04-26T14:35:16.935Z,96716.06
2023-04-26T14:37:22.933Z,96711.28
2023-04-26T14:39:26.157Z,96717.25
2023-04-26T14:41:29.214Z,96709.78
2023-04-26T14:43:32.104Z,96717.47
2023-04-26T14:45:44.012Z,96708.06
2023-04-26T14:47:49.050Z,96718.50
2023-04-26T14:49:51.975Z,96717.13
2023-04-26T14:51:54.792Z,96710.31
2023-04-26T14:53:57.606Z,96704.59
2023-04-26T14:56:02.058Z,96694.88
2023-04-26T14:58:04.989Z,96702.91
2023-04-26T15:00:14.194Z,96688.13
2023-04-26T15:02:17.130Z,96699.06
2023-04-26T15:04:21.603Z,96698.00
2023-04-26T15:06:24.776Z,96690.00
2023-04-26T15:08:27.805Z,96699.88
2023-04-26T15:10:31.022Z,96680.94
2023-04-26T15:12:33.748Z,96687.44
2023-04-26T15:14:36.627Z,96691.72
2023-04-26T15:16:39.508Z,96690.19
2023-04-26T15:18:42.363Z,96684.63
2023-04-26T15:20:46.717Z,96689.16
2023-04-26T15:22:50.079Z,96689.75
2023-04-26T15:24:52.952Z,96688.69
2023-04-26T15:26:55.847Z,96694.59
2023-04-26T15:28:58.790Z,96689.25
2023-04-26T15:31:04.614Z,96689.25
2023-04-26T15:33:08.279Z,96687.06
2023-04-26T15:35:14.119Z,96681.13
2023-04-26T15:37:18.875Z,96681.63
2023-04-26T15:39:21.822Z,96681.63
2023-04-26T15:41:24.748Z,96689.63
2023-04-26T15:43:27.895Z,96691.50
2023-04-26T15:45:30.657Z,96686.97
2023-04-26T15:47:35.430Z,96686.97
2023-04-26T15:49:38.410Z,96680.00
2023-04-26T15:51:41.350Z,96682.66
2023-04-26T15:53:45.438Z,96683.72
2023-04-26T15:55:48.240Z,96691.41
2023-04-26T15:57:51.026Z,96687.94
2023-04-26T15:59:53.777Z,96687.13
2023-04-26T16:01:56.638Z,96688.38
2023-04-26T16:03:59.713Z,96689.44
2023-04-26T16:06:02.541Z,96690.72
2023-04-26T16:08:06.147Z,96686.19
2023-04-26T16:10:11.795Z,96682.94
2023-04-26T16:12:14.751Z,96688.28
2023-04-26T16:14:17.626Z,96688.28
2023-04-26T16:16:20.885Z,96680.28
2023-04-26T16:18:23.791Z,96681.09
2023-04-26T16:20:27.524Z,96690.47
2023-04-26T16:22:30.628Z,96697.69
2023-04-26T16:24:33.477Z,96704.06
2023-04-26T16:26:37.704Z,96694.19
2023-04-26T16:28:40.616Z,96695.56
2023-04-26T16:30:43.818Z,96696.38
2023-04-26T16:32:46.676Z,96687.56
2023-04-26T16:34:49.611Z,96686.75
2023-04-26T16:36:52.516Z,96685.69
2023-04-26T16:38:56.342Z,96685.69
2023-04-26T16:41:01.515Z,96681.97
2023-04-26T16:43:09.311Z,96686.28
2023-04-26T16:45:16.121Z,96678.06
2023-04-26T16:47:21.790Z,96681.78
2023-04-26T16:49:25.160Z,96684.66
2023-04-26T16:51:28.714Z,96680.94
2023-04-26T16:53:31.761Z,96694.28
2023-04-26T16:55:35.178Z,96687.94
2023-04-26T16:57:38.333Z,96681.78
2023-04-26T16:59:42.401Z,96680.13
2023-04-26T17:01:45.611Z,96684.66
2023-04-26T17:03:48.766Z,96679.31
2023-04-26T17:05:52.526Z,96676.63
2023-04-26T17:07:55.948Z,96683.84
2023-04-26T17:09:59.004Z,96684.66
2023-04-26T17:12:02.545Z,96678.50
2023-04-26T17:14:06.252Z,96684.66
2023-04-26T17:16:11.072Z,96687.31
2023-04-26T17:18:14.407Z,96688.38
2023-04-26T17:20:18.415Z,96696.38
2023-04-26T17:22:21.907Z,96689.91
2023-04-26T17:24:25.167Z,96698.50
2023-04-26T17:26:28.895Z,96693.63
2023-04-26T17:28:33.012Z,96702.44
2023-04-26T17:30:35.993Z,96702.69
2023-04-26T17:32:40.251Z,96701.06
2023-04-26T17:34:43.157Z,96708.28
2023-04-26T17:36:47.474Z,96710.34
2023-04-26T17:38:50.557Z,96708.72
2023-04-26T17:40:54.587Z,96701.75
2023-04-26T17:42:57.365Z,96708.16
2023-04-26T17:45:01.241Z,96710.81
2023-04-26T17:47:04.150Z,96715.34
2023-04-26T17:49:08.357Z,96711.88
2023-04-26T17:51:11.691Z,96706.28
2023-04-26T17:53:14.737Z,96706.28
2023-04-26T17:55:18.036Z,96716.97
2023-04-26T17:57:23.050Z,96707.09
2023-04-26T17:59:25.771Z,96716.16
2023-04-26T18:01:28.869Z,96716.97
2023-04-26T18:03:35.820Z,96726.03
2023-04-26T18:05:40.626Z,96723.59
2023-04-26T18:07:43.468Z,96721.16
2023-04-26T18:09:46.282Z,96719.06
2023-04-26T18:11:49.071Z,96718.81
2023-04-26T18:13:51.853Z,96713.72
2023-04-26T18:15:55.831Z,96723.59
2023-04-26T18:18:00.741Z,96722.78
2023-04-26T18:20:03.751Z,96728.38
2023-04-26T18:22:08.999Z,96718.72
2023-04-26T18:24:11.809Z,96720.34
2023-04-26T18:26:15.037Z,96726.75
2023-04-26T18:28:18.109Z,96729.41
2023-04-26T18:30:21.155Z,96733.94
2023-04-26T18:32:24.055Z,96739.53
2023-04-26T18:34:26.951Z,96745.69
2023-04-26T18:36:31.828Z,96749.59
2023-04-26T18:38:36.208Z,96741.00
2023-04-26T18:40:39.007Z,96747.16
2023-04-26T18:42:41.970Z,96751.13
2023-04-26T18:44:44.775Z,96752.16
2023-04-26T18:46:47.881Z,96754.84
2023-04-26T18:48:51.136Z,96765.75
2023-04-26T18:50:54.719Z,96765.19
2023-04-26T18:52:58.243Z,96757.19
2023-04-26T18:55:02.832Z,96762.50
2023-04-26T18:57:05.645Z,96764.13
2023-04-26T18:59:08.949Z,96764.94
2023-04-26T19:01:11.959Z,96756.47
2023-04-26T19:03:14.882Z,96759.94
2023-04-26T19:05:17.918Z,96760.75
2023-04-26T19:07:20.896Z,96764.00
2023-04-26T19:09:23.751Z,96763.75
2023-04-26T19:11:28.158Z,96770.97
2023-04-26T19:13:30.945Z,96770.97
2023-04-26T19:15:33.744Z,96770.97
2023-04-26T19:17:37.363Z,96775.50
2023-04-26T19:19:40.038Z,96778.97
2023-04-26T19:21:43.079Z,96786.97
2023-04-26T19:23:46.735Z,96783.06
2023-04-26T19:25:49.750Z,96788.41
2023-04-26T19:27:53.993Z,96780.38
2023-04-26T19:29:58.904Z,96786.53
2023-04-26T19:32:04.451Z,96785.50
2023-04-26T19:34:07.359Z,96793.50
2023-04-26T19:36:10.705Z,96788.97
2023-04-26T19:38:13.706Z,96778.53
2023-04-26T19:40:16.805Z,96793.50
2023-04-26T19:42:19.750Z,96802.31
2023-04-26T19:44:23.941Z,96800.69
2023-04-26T19:46:27.108Z,96801.75
2023-04-26T19:48:29.945Z,96805.22
2023-04-26T19:50:33.039Z,96805.47
2023-04-26T19:52:35.880Z,96813.47
2023-04-26T19:54:38.655Z,96810.81
2023-04-26T19:56:41.505Z,96812.63
2023-04-26T19:58:44.294Z,96803.81
2023-04-26T20:00:48.696Z,96814.50
2023-04-26T20:02:51.770Z,96808.56
2023-04-26T20:04:54.738Z,96813.69
2023-04-26T20:06:59.731Z,96819.03
2023-04-26T20:09:02.720Z,96825.16
2023-04-26T20:11:05.900Z,96819.03
2023-04-26T20:13:08.760Z,96816.59
2023-04-26T20:15:15.104Z,96823.53
2023-04-26T20:17:19.549Z,96824.59
2023-04-26T20:19:22.480Z,96830.97
2023-04-26T20:21:27.173Z,96834.69
2023-04-26T20:23:31.544Z,96833.53
2023-04-26T20:25:34.393Z,96826.22
2023-04-26T20:27:37.401Z,96831.78
2023-04-26T20:29:40.261Z,96833.88
2023-04-26T20:31:43.085Z,96828.97
2023-04-26T20:33:47.324Z,96836.41
